createdAt,value
2022-08-28T00:00:18.400Z,23.30
2022-08-28T00:02:47.113Z,23.20
2022-08-28T00:05:16.476Z,23.20
2022-08-28T00:07:47.821Z,23.20
2022-08-28T00:10:20.695Z,23.20
2022-08-28T00:12:52.278Z,23.30
2022-08-28T00:15:22.385Z,23.20
2022-08-28T00:17:51.358Z,23.20
2022-08-28T00:20:20.846Z,23.20
2022-08-28T00:22:50.108Z,23.20
2022-08-28T00:25:24.263Z,23.20
2022-08-28T00:27:55.411Z,23.20
2022-08-28T00:30:24.889Z,23.20
2022-08-28T00:32:53.591Z,23.20
2022-08-28T00:35:23.978Z,23.20
2022-08-28T00:37:53.338Z,23.20
2022-08-28T00:40:28.673Z,23.20
2022-08-28T00:43:24.175Z,23.20
2022-08-28T00:45:52.930Z,22.90
2022-08-28T00:48:21.530Z,23.10
2022-08-28T00:51:07.410Z,23.10
2022-08-28T00:53:36.026Z,23.10
2022-08-28T00:56:12.959Z,23.00
2022-08-28T00:58:48.731Z,23.00
2022-08-28T01:01:17.802Z,23.00
2022-08-28T01:03:46.648Z,23.10
2022-08-28T01:06:16.248Z,23.00
2022-08-28T01:08:49.842Z,23.00
2022-08-28T01:11:21.176Z,23.00
2022-08-28T01:13:50.115Z,22.90
2022-08-28T01:16:20.738Z,22.90
2022-08-28T01:18:49.999Z,22.90
2022-08-28T01:21:22.152Z,22.90
2022-08-28T01:24:12.617Z,22.90
2022-08-28T01:26:41.347Z,22.90
2022-08-28T01:29:10.248Z,22.80
2022-08-28T01:31:39.740Z,22.80
2022-08-28T01:34:09.109Z,22.80
2022-08-28T01:36:39.380Z,22.80
2022-08-28T01:39:10.385Z,22.80
2022-08-28T01:41:42.124Z,22.80
2022-08-28T01:44:11.032Z,22.70
2022-08-28T01:46:42.085Z,22.70
2022-08-28T01:49:12.225Z,22.70
2022-08-28T01:51:41.388Z,22.60
2022-08-28T01:54:10.186Z,22.60
2022-08-28T01:56:44.117Z,22.50
2022-08-28T01:59:13.550Z,22.40
2022-08-28T02:01:43.204Z,22.40
2022-08-28T02:04:12.258Z,22.40
2022-08-28T02:06:41.406Z,22.40
2022-08-28T02:09:14.474Z,22.40
2022-08-28T02:11:46.775Z,22.50
2022-08-28T02:14:16.359Z,22.50
2022-08-28T02:16:45.103Z,22.50
2022-08-28T02:19:13.726Z,22.60
2022-08-28T02:21:42.662Z,22.60
2022-08-28T02:24:11.366Z,22.60
2022-08-28T02:26:39.910Z,22.60
2022-08-28T02:29:10.207Z,22.60
2022-08-28T02:31:39.151Z,22.70
2022-08-28T02:34:07.907Z,22.70
2022-08-28T02:36:36.456Z,22.70
2022-08-28T02:39:05.096Z,22.70
2022-08-28T02:41:33.698Z,22.80
2022-08-28T02:44:02.491Z,22.70
2022-08-28T02:46:32.617Z,22.70
2022-08-28T02:49:01.356Z,22.60
2022-08-28T02:51:33.076Z,22.60
2022-08-28T02:54:21.671Z,22.40
2022-08-28T02:56:50.309Z,22.50
2022-08-28T02:59:18.973Z,22.40
2022-08-28T03:01:49.108Z,22.40
2022-08-28T03:04:17.901Z,22.30
2022-08-28T03:06:46.426Z,22.30
2022-08-28T03:09:15.057Z,22.20
2022-08-28T03:11:43.729Z,22.20
2022-08-28T03:14:12.214Z,22.20
2022-08-28T03:16:40.861Z,22.20
2022-08-28T03:19:11.122Z,22.20
2022-08-28T03:21:40.153Z,22.20
2022-08-28T03:24:08.940Z,22.20
2022-08-28T03:26:37.574Z,22.20
2022-08-28T03:29:06.358Z,22.20
2022-08-28T03:31:36.316Z,22.20
2022-08-28T03:34:04.968Z,22.10
2022-08-28T03:36:35.124Z,22.10
2022-08-28T03:39:05.503Z,22.10
2022-08-28T03:41:34.385Z,22.10
2022-08-28T03:44:03.380Z,22.10
2022-08-28T03:46:34.138Z,22.10
2022-08-28T03:49:03.627Z,22.10
2022-08-28T03:51:34.281Z,22.10
2022-08-28T03:54:05.144Z,22.10
2022-08-28T03:56:34.038Z,22.00
2022-08-28T03:59:04.504Z,22.00
2022-08-28T04:01:34.414Z,22.00
2022-08-28T04:04:03.197Z,22.00
2022-08-28T04:06:31.938Z,22.00
2022-08-28T04:09:00.674Z,22.00
2022-08-28T04:11:30.727Z,22.00
2022-08-28T04:13:59.382Z,22.10
2022-08-28T04:16:28.097Z,22.10
2022-08-28T04:18:56.786Z,22.10
2022-08-28T04:21:26.367Z,22.10
2022-08-28T04:23:55.029Z,22.10
2022-08-28T04:26:24.765Z,22.20
2022-08-28T04:28:56.183Z,22.20
2022-08-28T04:31:32.042Z,22.20
2022-08-28T04:34:01.893Z,22.20
2022-08-28T04:36:30.494Z,22.30
2022-08-28T04:38:59.289Z,22.30
2022-08-28T04:41:28.817Z,22.40
2022-08-28T04:43:59.314Z,22.40
2022-08-28T04:46:31.167Z,22.50
2022-08-28T04:49:00.223Z,22.50
2022-08-28T04:51:29.343Z,22.50
2022-08-28T04:53:58.013Z,22.60
2022-08-28T04:56:26.753Z,22.70
2022-08-28T04:58:55.518Z,22.70
2022-08-28T05:01:26.141Z,22.70
2022-08-28T05:03:57.747Z,22.70
2022-08-28T05:06:28.289Z,22.80
2022-08-28T05:08:57.713Z,22.90
2022-08-28T05:11:33.598Z,22.90
2022-08-28T05:14:22.292Z,23.00
2022-08-28T05:16:53.415Z,23.00
2022-08-28T05:19:23.114Z,23.10
2022-08-28T05:21:51.656Z,23.10
2022-08-28T05:24:20.534Z,23.20
2022-08-28T05:26:49.219Z,23.30
2022-08-28T05:29:18.147Z,23.30
2022-08-28T05:31:46.823Z,23.40
2022-08-28T05:34:16.828Z,23.40
2022-08-28T05:36:45.468Z,23.50
2022-08-28T05:39:14.685Z,23.60
2022-08-28T05:41:44.481Z,23.70
2022-08-28T05:44:14.336Z,23.70
2022-08-28T05:46:45.141Z,23.70
2022-08-28T05:49:14.641Z,23.90
2022-08-28T05:51:44.687Z,24.00
2022-08-28T05:54:15.061Z,24.00
2022-08-28T05:56:44.925Z,24.10
2022-08-28T05:59:14.015Z,24.20
2022-08-28T06:01:43.338Z,24.20
2022-08-28T06:04:13.474Z,24.30
2022-08-28T06:06:42.758Z,24.40
2022-08-28T06:09:13.778Z,24.40
2022-08-28T06:11:44.857Z,24.50
2022-08-28T06:14:16.323Z,24.50
2022-08-28T06:16:48.250Z,24.50
2022-08-28T06:19:17.189Z,24.70
2022-08-28T06:21:47.010Z,24.70
2022-08-28T06:24:17.094Z,24.80
2022-08-28T06:26:46.073Z,24.80
2022-08-28T06:29:15.842Z,24.90
2022-08-28T06:31:44.602Z,25.00
2022-08-28T06:34:13.557Z,25.10
2022-08-28T06:36:43.131Z,25.10
2022-08-28T06:39:13.037Z,25.20
2022-08-28T06:41:44.165Z,25.30
2022-08-28T06:44:13.950Z,25.30
2022-08-28T06:46:43.049Z,25.40
2022-08-28T06:49:12.720Z,25.50
2022-08-28T06:51:41.828Z,25.60
2022-08-28T06:54:10.794Z,25.60
2022-08-28T06:56:39.699Z,25.70
2022-08-28T06:59:09.774Z,25.80
2022-08-28T07:01:38.854Z,25.80
2022-08-28T07:04:10.466Z,25.90
2022-08-28T07:06:57.417Z,26.00
2022-08-28T07:09:26.018Z,26.00
2022-08-28T07:11:54.593Z,26.10
2022-08-28T07:14:25.748Z,26.20
2022-08-28T07:16:54.900Z,26.30
2022-08-28T07:19:23.428Z,26.40
2022-08-28T07:21:52.124Z,26.40
2022-08-28T07:24:20.738Z,26.50
2022-08-28T07:26:49.384Z,26.50
2022-08-28T07:29:18.077Z,26.60
2022-08-28T07:31:49.581Z,26.70
2022-08-28T07:34:19.131Z,26.80
2022-08-28T07:36:47.916Z,26.90
2022-08-28T07:39:16.947Z,27.00
2022-08-28T07:41:45.697Z,27.10
2022-08-28T07:44:32.869Z,27.10
2022-08-28T07:47:04.652Z,27.20
2022-08-28T07:49:35.255Z,27.40
2022-08-28T07:52:22.650Z,27.50
2022-08-28T07:54:51.281Z,27.60
2022-08-28T07:57:21.305Z,27.70
2022-08-28T07:59:52.582Z,27.80
2022-08-28T08:02:22.825Z,27.90
2022-08-28T08:04:51.537Z,27.90
2022-08-28T08:07:20.700Z,28.10
2022-08-28T08:09:49.349Z,28.20
2022-08-28T08:12:19.294Z,28.30
2022-08-28T08:14:49.659Z,28.50
2022-08-28T08:17:18.397Z,28.50
2022-08-28T08:19:48.720Z,28.70
2022-08-28T08:22:17.771Z,28.70
2022-08-28T08:24:46.352Z,28.80
2022-08-28T08:27:15.115Z,28.90
2022-08-28T08:29:43.791Z,29.00
2022-08-28T08:32:12.669Z,29.00
2022-08-28T08:34:42.375Z,29.20
2022-08-28T08:37:13.607Z,29.30
2022-08-28T08:39:42.982Z,29.40
2022-08-28T08:42:19.992Z,29.60
2022-08-28T08:44:49.923Z,29.60
2022-08-28T08:47:19.912Z,29.70
2022-08-28T08:49:52.574Z,29.80
2022-08-28T08:52:29.406Z,29.90
2022-08-28T08:55:19.945Z,30.10
2022-08-28T08:57:49.844Z,30.20
2022-08-28T09:00:18.935Z,30.30
2022-08-28T09:02:51.167Z,30.40
2022-08-28T09:05:21.721Z,30.50
2022-08-28T09:07:56.938Z,30.70
2022-08-28T09:10:26.828Z,30.80
2022-08-28T09:12:58.812Z,30.90
2022-08-28T09:15:30.426Z,31.00
2022-08-28T09:18:04.645Z,31.10
2022-08-28T09:20:33.625Z,31.30
2022-08-28T09:23:12.538Z,31.40
2022-08-28T09:25:51.352Z,31.70
2022-08-28T09:28:21.624Z,31.70
2022-08-28T09:30:58.517Z,31.80
2022-08-28T09:33:35.379Z,32.00
2022-08-28T09:36:23.719Z,32.20
2022-08-28T09:39:14.617Z,32.30
2022-08-28T09:42:08.002Z,32.50
2022-08-28T09:44:51.370Z,32.70
2022-08-28T09:47:36.911Z,32.80
2022-08-28T09:50:19.860Z,32.90
2022-08-28T09:52:48.957Z,33.10
2022-08-28T09:55:21.460Z,33.20
2022-08-28T09:57:50.390Z,33.30
2022-08-28T10:00:18.909Z,33.30
2022-08-28T10:02:49.828Z,33.50
2022-08-28T10:05:25.831Z,33.60
2022-08-28T10:07:58.099Z,33.70
2022-08-28T10:10:32.900Z,33.80
2022-08-28T10:13:04.298Z,33.90
2022-08-28T10:15:42.982Z,34.00
2022-08-28T10:18:20.087Z,34.20
2022-08-28T10:20:53.606Z,34.30
2022-08-28T10:23:27.746Z,34.30
2022-08-28T10:26:02.424Z,34.50
2022-08-28T10:28:35.992Z,34.60
2022-08-28T10:31:10.603Z,34.70
2022-08-28T10:33:47.441Z,34.70
2022-08-28T10:36:33.240Z,34.80
2022-08-28T10:39:08.975Z,34.80
2022-08-28T10:41:43.188Z,35.00
2022-08-28T10:44:12.755Z,35.20
2022-08-28T10:46:43.979Z,35.30
2022-08-28T10:49:17.231Z,35.50
2022-08-28T10:51:48.001Z,35.70
2022-08-28T10:54:20.204Z,35.90
2022-08-28T10:57:11.533Z,36.20
2022-08-28T10:59:42.332Z,36.60
2022-08-28T11:02:13.790Z,37.00
2022-08-28T11:04:42.503Z,37.30
2022-08-28T11:07:12.881Z,37.60
2022-08-28T11:09:44.331Z,37.80
2022-08-28T11:12:37.772Z,38.10
2022-08-28T11:15:25.689Z,38.20
2022-08-28T11:17:54.603Z,38.30
2022-08-28T11:20:25.092Z,38.30
2022-08-28T11:22:55.380Z,38.30
2022-08-28T11:25:32.330Z,38.20
2022-08-28T11:28:18.842Z,38.20
2022-08-28T11:30:48.398Z,38.30
2022-08-28T11:33:36.903Z,38.30
2022-08-28T11:36:06.718Z,38.30
2022-08-28T11:38:53.640Z,38.30
2022-08-28T11:41:24.554Z,38.30
2022-08-28T11:44:14.617Z,38.50
2022-08-28T11:46:44.391Z,38.50
2022-08-28T11:49:27.816Z,38.60
2022-08-28T11:52:04.469Z,38.70
2022-08-28T11:54:46.672Z,38.70
2022-08-28T11:57:43.127Z,38.50
2022-08-28T12:00:22.327Z,38.40
2022-08-28T12:02:57.153Z,38.40
2022-08-28T12:05:41.628Z,38.30
2022-08-28T12:08:13.798Z,38.10
2022-08-28T12:10:56.916Z,38.00
2022-08-28T12:13:49.158Z,38.00
2022-08-28T12:16:19.752Z,37.90
2022-08-28T12:19:02.463Z,37.80
2022-08-28T12:21:32.158Z,37.70
2022-08-28T12:24:09.146Z,37.60
2022-08-28T12:26:40.144Z,37.50
2022-08-28T12:29:20.151Z,37.50
2022-08-28T12:32:15.161Z,37.40
2022-08-28T12:34:54.311Z,37.30
2022-08-28T12:37:51.006Z,37.30
2022-08-28T12:40:23.080Z,37.30
2022-08-28T12:42:55.395Z,37.30
2022-08-28T12:45:31.114Z,37.20
2022-08-28T12:48:01.454Z,37.20
2022-08-28T12:50:33.479Z,37.20
2022-08-28T12:53:03.484Z,37.30
2022-08-28T12:55:32.902Z,37.30
2022-08-28T12:58:01.881Z,37.30
2022-08-28T13:00:33.673Z,37.40
2022-08-28T13:03:02.757Z,37.50
2022-08-28T13:05:36.742Z,37.60
2022-08-28T13:08:07.515Z,37.70
2022-08-28T13:10:37.980Z,37.80
2022-08-28T13:13:08.378Z,37.90
2022-08-28T13:15:43.899Z,37.90
2022-08-28T13:18:12.651Z,37.90
2022-08-28T13:20:42.649Z,37.80
2022-08-28T13:23:29.106Z,37.80
2022-08-28T13:26:04.199Z,37.60
2022-08-28T13:28:36.880Z,37.40
2022-08-28T13:31:05.749Z,37.20
2022-08-28T13:33:34.330Z,36.90
2022-08-28T13:36:20.362Z,36.80
2022-08-28T13:38:49.037Z,36.70
2022-08-28T13:41:17.592Z,36.50
2022-08-28T13:43:47.270Z,36.30
2022-08-28T13:46:16.031Z,35.90
2022-08-28T13:48:44.559Z,35.60
2022-08-28T13:51:20.130Z,35.30
2022-08-28T13:53:50.028Z,35.00
2022-08-28T13:56:18.867Z,34.90
2022-08-28T13:58:57.978Z,34.70
2022-08-28T14:01:47.741Z,34.50
2022-08-28T14:04:15.403Z,34.40
2022-08-28T14:06:45.487Z,34.20
2022-08-28T14:09:17.561Z,34.10
2022-08-28T14:11:46.821Z,34.00
2022-08-28T14:14:15.653Z,33.90
2022-08-28T14:16:45.847Z,33.80
2022-08-28T14:19:14.762Z,33.70
2022-08-28T14:21:43.749Z,33.70
2022-08-28T14:24:14.016Z,33.50
2022-08-28T14:26:42.705Z,33.50
2022-08-28T14:29:13.414Z,33.40
2022-08-28T14:31:43.967Z,33.40
2022-08-28T14:34:13.887Z,33.40
2022-08-28T14:36:42.616Z,33.40
2022-08-28T14:39:12.277Z,33.30
2022-08-28T14:41:46.312Z,33.30
2022-08-28T14:44:15.086Z,33.20
2022-08-28T14:46:44.879Z,33.10
2022-08-28T14:49:15.156Z,33.00
2022-08-28T14:51:44.865Z,33.00
2022-08-28T14:54:14.465Z,33.00
2022-08-28T14:56:45.193Z,32.90
2022-08-28T14:59:18.380Z,32.90
2022-08-28T15:01:49.821Z,32.90
2022-08-28T15:04:20.178Z,32.70
2022-08-28T15:06:48.844Z,32.70
2022-08-28T15:09:17.365Z,32.70
2022-08-28T15:11:47.964Z,32.60
2022-08-28T15:14:16.511Z,32.50
2022-08-28T15:16:46.490Z,32.50
2022-08-28T15:19:18.099Z,32.40
2022-08-28T15:21:47.473Z,32.40
2022-08-28T15:24:17.096Z,32.30
2022-08-28T15:26:45.811Z,32.20
2022-08-28T15:29:16.791Z,32.10
2022-08-28T15:31:46.361Z,32.10
2022-08-28T15:34:16.434Z,32.00
2022-08-28T15:36:45.663Z,32.00
2022-08-28T15:39:40.824Z,31.90
2022-08-28T15:42:10.233Z,31.80
2022-08-28T15:44:40.453Z,31.70
2022-08-28T15:47:09.616Z,31.60
2022-08-28T15:49:48.679Z,31.60
2022-08-28T15:52:37.895Z,31.50
2022-08-28T15:55:07.652Z,31.50
2022-08-28T15:57:36.289Z,31.30
2022-08-28T16:00:10.381Z,31.30
2022-08-28T16:02:39.496Z,31.20
2022-08-28T16:05:09.415Z,31.10
2022-08-28T16:07:38.838Z,31.10
2022-08-28T16:10:08.569Z,31.00
2022-08-28T16:12:39.842Z,30.90
2022-08-28T16:15:10.930Z,30.90
2022-08-28T16:17:39.744Z,30.80
2022-08-28T16:20:12.892Z,30.70
2022-08-28T16:22:42.072Z,30.60
2022-08-28T16:25:11.193Z,30.50
2022-08-28T16:27:39.995Z,30.40
2022-08-28T16:30:15.838Z,30.30
2022-08-28T16:32:46.810Z,30.30
2022-08-28T16:35:16.238Z,30.20
2022-08-28T16:37:45.225Z,30.10
2022-08-28T16:40:15.004Z,30.00
2022-08-28T16:42:47.195Z,29.90
2022-08-28T16:45:22.552Z,29.80
2022-08-28T16:47:51.634Z,29.80
2022-08-28T16:50:20.769Z,29.60
2022-08-28T16:52:49.436Z,29.60
2022-08-28T16:55:18.028Z,29.50
2022-08-28T16:57:46.705Z,29.50
2022-08-28T17:00:15.550Z,29.40
2022-08-28T17:02:45.673Z,29.30
2022-08-28T17:05:15.131Z,29.30
2022-08-28T17:07:43.788Z,29.20
2022-08-28T17:10:14.090Z,29.10
2022-08-28T17:12:42.696Z,29.10
2022-08-28T17:15:11.868Z,29.00
2022-08-28T17:17:40.819Z,29.00
2022-08-28T17:20:32.888Z,29.00
2022-08-28T17:23:00.860Z,28.90
2022-08-28T17:25:29.803Z,28.90
2022-08-28T17:27:58.578Z,28.90
2022-08-28T17:30:27.248Z,28.80
2022-08-28T17:32:56.154Z,28.80
2022-08-28T17:35:26.192Z,28.80
2022-08-28T17:37:55.840Z,28.70
2022-08-28T17:40:26.432Z,28.70
2022-08-28T17:42:55.082Z,28.60
2022-08-28T17:45:23.711Z,28.60
2022-08-28T17:47:53.001Z,28.50
2022-08-28T17:50:22.022Z,28.50
2022-08-28T17:52:52.154Z,28.50
2022-08-28T17:55:21.230Z,28.40
2022-08-28T17:57:49.728Z,28.40
2022-08-28T18:00:19.151Z,28.40
2022-08-28T18:02:48.180Z,28.30
2022-08-28T18:05:16.914Z,28.30
2022-08-28T18:07:45.716Z,28.20
2022-08-28T18:10:15.804Z,28.20
2022-08-28T18:12:44.383Z,28.10
2022-08-28T18:15:15.104Z,28.00
2022-08-28T18:17:48.289Z,28.00
2022-08-28T18:20:17.602Z,28.00
2022-08-28T18:22:46.616Z,28.00
2022-08-28T18:25:30.718Z,27.90
2022-08-28T18:27:59.362Z,27.90
2022-08-28T18:30:28.665Z,27.90
2022-08-28T18:32:58.457Z,27.80
2022-08-28T18:35:49.247Z,27.80
2022-08-28T18:38:18.614Z,27.70
2022-08-28T18:40:49.031Z,27.70
2022-08-28T18:43:20.515Z,27.60
2022-08-28T18:45:49.288Z,27.60
2022-08-28T18:48:18.800Z,27.50
2022-08-28T18:50:48.688Z,27.40
2022-08-28T18:53:17.566Z,27.40
2022-08-28T18:55:46.758Z,27.30
2022-08-28T18:58:20.724Z,27.40
2022-08-28T19:00:49.677Z,27.30
2022-08-28T19:03:18.213Z,27.20
2022-08-28T19:05:46.990Z,27.30
2022-08-28T19:08:15.712Z,27.10
2022-08-28T19:10:44.448Z,27.10
2022-08-28T19:13:13.184Z,27.10
2022-08-28T19:15:43.277Z,27.10
2022-08-28T19:18:12.035Z,27.00
2022-08-28T19:20:40.590Z,27.00
2022-08-28T19:23:12.191Z,26.90
2022-08-28T19:25:43.120Z,26.90
2022-08-28T19:28:11.784Z,26.90
2022-08-28T19:30:40.593Z,26.80
2022-08-28T19:33:12.699Z,26.80
2022-08-28T19:35:41.421Z,26.70
2022-08-28T19:38:10.166Z,26.70
2022-08-28T19:40:40.204Z,26.60
2022-08-28T19:43:09.649Z,26.60
2022-08-28T19:45:42.899Z,26.60
2022-08-28T19:48:13.116Z,26.50
2022-08-28T19:50:41.905Z,26.50
2022-08-28T19:53:10.605Z,26.50
2022-08-28T19:55:39.247Z,26.50
2022-08-28T19:58:08.487Z,26.40
2022-08-28T20:00:37.250Z,26.40
2022-08-28T20:03:06.059Z,26.40
2022-08-28T20:05:38.189Z,26.30
2022-08-28T20:08:07.159Z,26.30
2022-08-28T20:10:35.900Z,26.30
2022-08-28T20:13:04.528Z,26.30
2022-08-28T20:15:33.160Z,26.30
2022-08-28T20:18:01.901Z,26.20
2022-08-28T20:20:30.699Z,26.20
2022-08-28T20:23:01.050Z,26.20
2022-08-28T20:25:31.323Z,26.20
2022-08-28T20:28:01.823Z,26.10
2022-08-28T20:30:30.854Z,26.10
2022-08-28T20:33:01.475Z,26.10
2022-08-28T20:35:30.290Z,26.00
2022-08-28T20:37:59.505Z,26.00
2022-08-28T20:40:30.586Z,25.90
2022-08-28T20:42:59.888Z,25.90
2022-08-28T20:45:28.894Z,25.90
2022-08-28T20:47:57.558Z,25.90
2022-08-28T20:50:26.858Z,25.80
2022-08-28T20:52:55.752Z,25.80
2022-08-28T20:55:24.268Z,25.80
2022-08-28T20:57:54.348Z,25.80
2022-08-28T21:00:23.165Z,25.70
2022-08-28T21:02:51.933Z,25.70
2022-08-28T21:05:39.349Z,25.70
2022-08-28T21:08:07.983Z,25.70
2022-08-28T21:10:43.063Z,25.60
2022-08-28T21:13:13.733Z,25.60
2022-08-28T21:15:42.474Z,25.60
2022-08-28T21:18:11.727Z,25.60
2022-08-28T21:20:41.863Z,25.60
2022-08-28T21:23:12.152Z,25.50
2022-08-28T21:25:41.655Z,25.50
2022-08-28T21:28:10.504Z,25.40
2022-08-28T21:30:42.323Z,25.40
2022-08-28T21:33:11.732Z,25.30
2022-08-28T21:35:41.737Z,25.30
2022-08-28T21:38:10.435Z,25.30
2022-08-28T21:40:41.027Z,25.20
2022-08-28T21:43:09.812Z,25.20
2022-08-28T21:45:38.649Z,25.20
2022-08-28T21:48:08.797Z,25.20
2022-08-28T21:50:37.457Z,25.20
2022-08-28T21:53:05.976Z,25.10
2022-08-28T21:55:34.856Z,25.10
2022-08-28T21:58:03.650Z,25.10
2022-08-28T22:00:32.469Z,25.20
2022-08-28T22:03:01.020Z,25.00
2022-08-28T22:05:31.122Z,25.00
2022-08-28T22:07:59.805Z,25.00
2022-08-28T22:10:28.445Z,24.90
2022-08-28T22:12:57.110Z,24.90
2022-08-28T22:15:25.843Z,24.90
2022-08-28T22:17:55.009Z,24.90
2022-08-28T22:20:23.628Z,24.90
2022-08-28T22:23:11.477Z,24.90
2022-08-28T22:25:42.216Z,24.80
2022-08-28T22:28:10.910Z,24.80
2022-08-28T22:30:40.242Z,24.70
2022-08-28T22:33:10.995Z,24.70
2022-08-28T22:35:39.728Z,24.70
2022-08-28T22:38:11.291Z,24.70
2022-08-28T22:40:40.235Z,24.60
2022-08-28T22:43:08.704Z,24.60
2022-08-28T22:45:37.333Z,24.60
2022-08-28T22:48:06.444Z,24.60
2022-08-28T22:50:35.212Z,24.60
2022-08-28T22:53:03.938Z,24.60
2022-08-28T22:55:34.037Z,24.50
2022-08-28T22:58:21.502Z,24.50
2022-08-28T23:00:50.173Z,24.50
2022-08-28T23:03:18.825Z,24.50
2022-08-28T23:05:47.633Z,24.50
2022-08-28T23:08:16.288Z,24.50
2022-08-28T23:10:59.046Z,24.40
2022-08-28T23:13:28.359Z,24.40
2022-08-28T23:15:57.072Z,24.40
2022-08-28T23:18:25.934Z,24.40
2022-08-28T23:20:56.799Z,24.30
2022-08-28T23:23:26.556Z,24.20
2022-08-28T23:25:56.701Z,24.20
2022-08-28T23:28:26.553Z,24.10
2022-08-28T23:30:58.110Z,24.10
2022-08-28T23:33:26.858Z,24.00
2022-08-28T23:35:55.748Z,24.00
2022-08-28T23:38:24.547Z,23.90
2022-08-28T23:40:55.019Z,23.90
2022-08-28T23:43:28.180Z,23.80
2022-08-28T23:45:56.972Z,23.80
2022-08-28T23:48:26.432Z,23.70
2022-08-28T23:50:55.160Z,23.70
2022-08-28T23:53:23.675Z,23.70
2022-08-28T23:55:52.527Z,23.70
2022-08-28T23:58:22.468Z,23.60
